Time;durP1;ratioP1;P1;durP2;ratioP2;P2;SDS_P1;SDS_P2;PMS_P1;PMS_P2;Temp;Humidity;BMP_temperature;BMP_pressure;BME280_temperature;BME280_humidity;BME280_pressure;Samples;Min_cycle;Max_cycle;Signal;HPM_P1;HPM_P2
2023/05/16 00:01:08;;;;;;;1.08;0.75;;;;;;;16.31;65.19;100497.19;4972468;28;20501;-67
2023/05/16 00:03:33;;;;;;;1.25;0.93;;;;;;;16.22;65.46;100482.06;4972690;28;20819;-67
2023/05/16 00:06:01;;;;;;;1.95;1.10;;;;;;;16.13;66.24;100489.13;4989886;28;20038;-67
2023/05/16 00:08:27;;;;;;;1.42;0.77;;;;;;;16.10;66.98;100487.22;4961234;28;20042;-67
2023/05/16 00:10:53;;;;;;;0.77;0.77;;;;;;;16.25;65.96;100492.19;4968877;28;20042;-67
2023/05/16 00:13:23;;;;;;;1.50;1.02;;;;;;;16.12;66.81;100495.75;4985290;28;20054;-67
2023/05/16 00:15:50;;;;;;;0.90;0.82;;;;;;;16.36;65.99;100492.09;4989397;28;20080;-67
2023/05/16 00:18:18;;;;;;;3.08;1.17;;;;;;;16.37;65.12;100495.59;4956679;28;20038;-67
2023/05/16 00:20:44;;;;;;;0.98;0.60;;;;;;;16.09;66.34;100494.56;4986712;28;20033;-67
2023/05/16 00:23:10;;;;;;;1.48;0.95;;;;;;;16.19;66.50;100501.91;4956615;28;20459;-65
2023/05/16 00:25:36;;;;;;;0.60;0.55;;;;;;;16.12;66.77;100499.22;4986897;28;20056;-65
2023/05/16 00:28:01;;;;;;;0.77;0.60;;;;;;;16.18;66.44;100494.16;4988431;28;20034;-65
2023/05/16 00:30:27;;;;;;;0.95;0.70;;;;;;;16.09;67.00;100491.06;4970598;28;20023;-65
2023/05/16 00:32:54;;;;;;;0.52;0.52;;;;;;;16.09;66.81;100486.44;4986571;28;20034;-65
2023/05/16 00:35:20;;;;;;;0.75;0.70;;;;;;;16.07;67.29;100494.19;4968193;28;20117;-65
2023/05/16 00:37:49;;;;;;;1.30;0.85;;;;;;;16.13;67.02;100502.69;4969238;28;20485;-65
2023/05/16 00:40:14;;;;;;;0.65;0.65;;;;;;;16.22;66.49;100506.53;4990075;28;20026;-65
2023/05/16 00:42:41;;;;;;;1.13;0.73;;;;;;;16.38;65.31;100503.34;4969821;28;20692;-65
2023/05/16 00:45:07;;;;;;;1.73;1.08;;;;;;;16.05;66.87;100501.97;4971977;28;20033;-65
2023/05/16 00:47:35;;;;;;;0.80;0.75;;;;;;;16.03;67.36;100500.81;4988825;28;20035;-65
2023/05/16 00:50:01;;;;;;;1.00;0.80;;;;;;;16.10;67.14;100506.97;4970111;28;20030;-65
2023/05/16 00:52:27;;;;;;;1.38;0.95;;;;;;;16.07;67.60;100505.06;4985810;28;20034;-65
2023/05/16 00:54:56;;;;;;;3.42;0.70;;;;;;;16.19;66.42;100506.56;4954974;28;20757;-65
2023/05/16 00:57:21;;;;;;;0.50;0.50;;;;;;;16.33;66.09;100511.16;4971019;28;20112;-65
2023/05/16 00:59:47;;;;;;;0.88;0.82;;;;;;;16.24;65.59;100517.78;4970304;28;20527;-65
2023/05/16 01:02:13;;;;;;;1.95;0.70;;;;;;;16.13;65.98;100514.34;4967741;28;20374;-65
2023/05/16 01:04:39;;;;;;;1.42;0.50;;;;;;;16.20;66.19;100516.28;4989805;28;20041;-65
2023/05/16 01:07:05;;;;;;;1.42;0.60;;;;;;;15.96;67.60;100509.78;4988601;28;20045;-65
2023/05/16 01:09:34;;;;;;;1.50;0.35;;;;;;;16.06;66.49;100519.84;4969183;28;20049;-65
2023/05/16 01:12:28;;;;;;;0.28;0.28;;;;;;;16.13;66.48;100519.78;4988757;28;20534;-65
2023/05/16 01:15:31;;;;;;;0.63;0.43;;;;;;;16.08;67.13;100522.94;4971844;28;20125;-65
2023/05/16 01:18:17;;;;;;;1.02;0.68;;;;;;;15.91;67.80;100528.44;4972401;28;20109;-65
2023/05/16 01:20:55;;;;;;;0.45;0.45;;;;;;;15.88;68.52;100516.41;4992311;28;20027;-65
2023/05/16 01:23:48;;;;;;;0.93;0.60;;;;;;;15.91;68.52;100518.31;4989556;28;20030;-65
2023/05/16 01:26:17;;;;;;;1.38;0.60;;;;;;;15.96;68.54;100514.44;4964098;28;20038;-65
2023/05/16 01:28:47;;;;;;;0.70;0.55;;;;;;;16.05;67.93;100520.19;4975064;28;20044;-65
2023/05/16 01:31:13;;;;;;;0.95;0.60;;;;;;;15.92;68.59;100517.16;4977908;28;20058;-65
2023/05/16 01:33:39;;;;;;;0.40;0.40;;;;;;;15.92;69.07;100513.66;4968155;28;20665;-65
2023/05/16 01:36:23;;;;;;;0.52;0.43;;;;;;;15.86;69.46;100526.88;4984757;28;20042;-66
2023/05/16 01:39:10;;;;;;;2.38;0.80;;;;;;;15.92;69.30;100519.88;4967835;28;20042;-65
2023/05/16 01:41:47;;;;;;;0.73;0.73;;;;;;;16.04;68.97;100519.44;4973846;28;20034;-65
2023/05/16 01:44:23;;;;;;;0.82;0.40;;;;;;;16.00;68.82;100524.13;4993015;28;20042;-65
2023/05/16 01:46:55;;;;;;;0.43;0.32;;;;;;;15.89;69.20;100523.38;4957276;28;20042;-65
2023/05/16 01:49:21;;;;;;;0.43;0.38;;;;;;;15.93;69.09;100517.94;4988010;28;20501;-65
2023/05/16 01:51:54;;;;;;;0.75;0.40;;;;;;;15.94;68.77;100520.25;4969408;28;20044;-65
2023/05/16 01:54:25;;;;;;;0.43;0.43;;;;;;;16.17;67.65;100512.41;4989187;28;20381;-65
2023/05/16 01:56:53;;;;;;;0.50;0.50;;;;;;;16.07;68.16;100517.88;4991019;28;20108;-65
2023/05/16 01:59:23;;;;;;;0.50;0.30;;;;;;;16.11;67.99;100510.47;4978480;28;20026;-65
2023/05/16 02:02:02;;;;;;;0.43;0.43;;;;;;;15.97;68.60;100511.31;4984042;28;20030;-65
2023/05/16 02:04:29;;;;;;;0.70;0.40;;;;;;;15.96;68.68;100517.94;4989384;28;20044;-65
2023/05/16 02:06:55;;;;;;;0.50;0.50;;;;;;;15.97;68.99;100510.53;4992052;28;20117;-66
2023/05/16 02:09:21;;;;;;;0.68;0.38;;;;;;;15.96;68.93;100507.06;4973930;28;20061;-65
2023/05/16 02:11:47;;;;;;;0.32;0.28;;;;;;;16.12;68.27;100512.78;4989403;28;20042;-65
2023/05/16 02:14:12;;;;;;;0.20;0.20;;;;;;;16.05;68.86;100520.19;4987402;28;20525;-65
2023/05/16 02:16:38;;;;;;;0.63;0.45;;;;;;;16.10;68.18;100512.41;4990003;28;20045;-65
2023/05/16 02:19:03;;;;;;;0.45;0.45;;;;;;;16.10;68.70;100515.13;4956504;28;20026;-65
2023/05/16 02:21:30;;;;;;;0.43;0.20;;;;;;;16.07;68.54;100517.88;4987206;28;20045;-65
2023/05/16 02:23:55;;;;;;;0.35;0.32;;;;;;;16.02;69.36;100519.06;4958137;28;20470;-65
2023/05/16 02:26:21;;;;;;;0.20;0.20;;;;;;;15.89;70.51;100512.50;4986895;28;20169;-65
2023/05/16 02:28:48;;;;;;;0.43;0.22;;;;;;;16.16;68.75;100527.13;4958650;28;20053;-65
2023/05/16 02:31:25;;;;;;;0.20;0.20;;;;;;;16.01;69.26;100527.59;4991596;28;20421;-65
2023/05/16 02:33:51;;;;;;;0.43;0.32;;;;;;;15.97;69.13;100522.19;4987842;28;20149;-65
2023/05/16 02:36:16;;;;;;;0.20;0.20;;;;;;;15.98;69.23;100520.25;4948578;28;20117;-65
2023/05/16 02:38:42;;;;;;;0.22;0.22;;;;;;;15.86;69.30;100524.16;4973261;28;20060;-66
2023/05/16 02:41:07;;;;;;;0.13;0.13;;;;;;;15.79;69.36;100526.91;4953357;28;20508;-65
2023/05/16 02:43:33;;;;;;;1.33;0.40;;;;;;;15.77;68.89;100537.41;4989469;28;20719;-65
2023/05/16 02:45:58;;;;;;;0.10;0.10;;;;;;;15.82;67.87;100528.06;4988967;28;20754;-66
2023/05/16 02:48:44;;;;;;;0.60;0.43;;;;;;;15.76;68.37;100541.25;4944851;28;20474;-65
2023/05/16 02:51:09;;;;;;;0.08;0.08;;;;;;;15.68;68.67;100530.81;4928379;29;20054;-65
2023/05/16 02:53:35;;;;;;;0.35;0.30;;;;;;;15.54;68.80;100539.00;4932248;29;20052;-65
2023/05/16 02:56:05;;;;;;;0.10;0.10;;;;;;;15.59;67.78;100539.38;4907790;29;20075;-66
2023/05/16 02:58:34;;;;;;;0.20;0.20;;;;;;;15.63;67.59;100542.84;4920502;29;20123;-66
2023/05/16 03:00:59;;;;;;;0.22;0.20;;;;;;;15.56;68.20;100539.38;4908145;29;20074;-65
2023/05/16 03:03:25;;;;;;;1.35;0.40;;;;;;;15.71;67.15;100546.31;4924131;29;20799;-65
2023/05/16 03:05:50;;;;;;;0.60;0.60;;;;;;;15.63;67.15;100551.00;4924773;29;20070;-65
2023/05/16 03:08:16;;;;;;;0.40;0.30;;;;;;;15.48;67.74;100554.91;4921337;29;20054;-66
2023/05/16 03:10:41;;;;;;;6.82;0.28;;;;;;;15.51;67.63;100559.53;4928326;29;20110;-65
2023/05/16 03:13:07;;;;;;;0.10;0.10;;;;;;;15.57;67.24;100568.84;4929463;29;20122;-65
2023/05/16 03:15:32;;;;;;;0.32;0.15;;;;;;;15.52;66.81;100566.53;4925041;29;20645;-65
2023/05/16 03:17:58;;;;;;;0.60;0.30;;;;;;;15.54;67.04;100569.63;4925235;29;20081;-65
2023/05/16 03:20:23;;;;;;;0.08;0.03;;;;;;;15.45;67.61;100577.38;4919099;29;20035;-65
2023/05/16 03:23:09;;;;;;;0.30;0.08;;;;;;;15.54;66.87;100579.72;4921259;29;20047;-65
2023/05/16 03:25:55;;;;;;;0.20;0.20;;;;;;;15.56;66.71;100574.66;4873484;29;20429;-65
2023/05/16 03:28:21;;;;;;;0.65;0.20;;;;;;;15.67;65.85;100576.19;4869133;29;20055;-66
2023/05/16 03:30:46;;;;;;;1.67;0.32;;;;;;;15.53;66.46;100586.28;4863041;29;20048;-65
2023/05/16 03:33:12;;;;;;;0.17;0.10;;;;;;;15.46;67.13;100586.31;4873419;29;20112;-65
2023/05/16 03:35:38;;;;;;;0.10;0.10;;;;;;;15.48;66.52;100590.19;4887950;29;20097;-66
2023/05/16 03:38:04;;;;;;;2.08;0.57;;;;;;;15.43;66.74;100600.66;4871922;29;20037;-65
2023/05/16 03:40:29;;;;;;;0.98;0.60;;;;;;;15.32;67.72;100595.97;4881892;29;20045;-65
2023/05/16 03:42:55;;;;;;;0.32;0.32;;;;;;;15.33;68.04;100594.81;4875255;29;20100;-65
2023/05/16 03:45:20;;;;;;;2.53;0.52;;;;;;;15.51;66.98;100592.13;4864356;29;20574;-65
2023/05/16 03:47:48;;;;;;;0.30;0.30;;;;;;;15.60;66.14;100591.72;4892807;29;20047;-65
2023/05/16 03:50:14;;;;;;;0.95;0.50;;;;;;;15.57;65.56;100601.41;4876467;29;20136;-65
2023/05/16 03:52:39;;;;;;;0.17;0.17;;;;;;;15.42;66.55;100594.47;4883903;29;20148;-65
2023/05/16 03:55:06;;;;;;;5.15;0.70;;;;;;;15.43;66.37;100578.94;4885312;29;20047;-65
2023/05/16 03:57:32;;;;;;;0.98;0.40;;;;;;;15.34;66.40;100590.16;4885180;29;20563;-65
2023/05/16 03:59:58;;;;;;;0.20;0.20;;;;;;;15.22;67.18;100595.97;4885682;29;20064;-65
2023/05/16 04:02:24;;;;;;;0.20;0.20;;;;;;;15.25;66.64;100597.91;4874599;29;20546;-66
2023/05/16 04:04:50;;;;;;;0.25;0.20;;;;;;;15.27;66.81;100599.06;4921302;28;20050;-66
2023/05/16 04:07:15;;;;;;;1.25;0.30;;;;;;;15.38;65.90;100599.06;4970227;28;20036;-65
2023/05/16 04:09:41;;;;;;;3.70;0.77;;;;;;;15.39;65.51;100604.09;4968948;28;20048;-66
2023/05/16 04:12:06;;;;;;;0.60;0.47;;;;;;;15.45;64.94;100609.19;4989815;28;20034;-65
2023/05/16 04:14:33;;;;;;;0.08;0.08;;;;;;;15.38;64.94;100615.38;4969660;28;20054;-65
2023/05/16 04:16:59;;;;;;;0.73;0.40;;;;;;;15.28;65.31;100627.75;4970827;28;20045;-66
2023/05/16 04:19:24;;;;;;;0.20;0.20;;;;;;;15.30;65.01;100630.09;4989519;28;20038;-65
2023/05/16 04:21:51;;;;;;;0.82;0.22;;;;;;;15.33;64.88;100630.09;4987891;28;20034;-65
2023/05/16 04:24:17;;;;;;;1.05;0.40;;;;;;;15.25;65.18;100625.81;4964859;28;20084;-65
2023/05/16 04:26:42;;;;;;;0.90;0.20;;;;;;;15.25;65.63;100635.91;4970107;28;20412;-65
2023/05/16 04:29:08;;;;;;;1.55;0.35;;;;;;;15.30;64.95;100636.28;4986773;28;20091;-65
2023/05/16 04:31:33;;;;;;;0.30;0.08;;;;;;;15.27;64.67;100645.19;4981138;28;20037;-65
2023/05/16 04:33:59;;;;;;;1.15;0.40;;;;;;;15.30;64.06;100640.94;4965788;28;20120;-65
2023/05/16 04:36:27;;;;;;;1.55;0.20;;;;;;;15.22;64.42;100650.22;4982039;28;20046;-65
2023/05/16 04:38:53;;;;;;;1.35;0.77;;;;;;;15.16;64.56;100652.56;4965288;28;20034;-65
2023/05/16 04:41:18;;;;;;;0.75;0.10;;;;;;;15.24;64.70;100661.47;4987216;28;20048;-66
2023/05/16 04:43:44;;;;;;;0.00;0.00;;;;;;;15.28;64.52;100659.53;4965803;28;20034;-65
2023/05/16 04:46:10;;;;;;;0.10;0.10;;;;;;;15.28;63.88;100654.13;4990132;28;20452;-65
2023/05/16 04:48:36;;;;;;;0.13;0.13;;;;;;;15.18;64.54;100654.88;4989005;28;20042;-65
2023/05/16 04:51:01;;;;;;;0.40;0.40;;;;;;;15.27;64.50;100666.16;4979408;23;20038;-66
2023/05/16 04:53:27;;;;;;;0.85;0.85;;;;;;;15.29;64.59;100663.81;5007427;28;20484;-66
2023/05/16 04:55:56;;;;;;;3.83;0.20;;;;;;;15.26;64.40;100661.88;5007584;28;20040;-67
2023/05/16 04:58:23;;;;;;;0.25;0.10;;;;;;;15.21;64.73;100673.88;5007632;28;20052;-67
2023/05/16 05:00:50;;;;;;;7.03;0.43;;;;;;;15.32;63.46;100671.19;5002145;28;20064;-67
2023/05/16 05:03:15;;;;;;;2.90;0.60;;;;;;;15.37;63.20;100676.22;5008457;28;20100;-67
2023/05/16 05:05:40;;;;;;;0.30;0.25;;;;;;;15.23;62.71;100676.97;5007930;28;20394;-67
2023/05/16 05:08:06;;;;;;;0.47;0.20;;;;;;;15.25;62.35;100673.91;4990356;28;20034;-67
2023/05/16 05:10:31;;;;;;;0.35;0.22;;;;;;;15.32;61.34;100671.19;5006150;28;20025;-67
2023/05/16 05:12:57;;;;;;;0.10;0.10;;;;;;;15.40;60.56;100678.16;5008985;28;20053;-67
2023/05/16 05:15:23;;;;;;;0.28;0.28;;;;;;;15.32;60.26;100682.81;5009584;28;20468;-67
2023/05/16 05:17:48;;;;;;;0.57;0.15;;;;;;;15.33;59.46;100672.72;5007441;28;20068;-66
2023/05/16 05:20:14;;;;;;;0.28;0.28;;;;;;;15.32;59.79;100682.03;5005524;28;20135;-67
2023/05/16 05:22:40;;;;;;;0.80;0.22;;;;;;;15.36;60.83;100690.97;5009310;28;20441;-67
2023/05/16 05:25:05;;;;;;;1.80;0.35;;;;;;;15.56;59.61;100684.03;5009682;28;20480;-67
2023/05/16 05:27:31;;;;;;;2.40;0.85;;;;;;;15.75;58.00;100685.59;5004929;28;20041;-67
2023/05/16 05:29:56;;;;;;;1.85;0.20;;;;;;;15.98;57.11;100692.16;5008168;28;20041;-66
2023/05/16 05:32:22;;;;;;;4.43;0.17;;;;;;;16.14;56.83;100692.50;5003233;28;20080;-66
2023/05/16 05:34:51;;;;;;;1.77;0.65;;;;;;;16.37;55.77;100699.47;5004048;28;20109;-67
2023/05/16 05:37:17;;;;;;;0.10;0.10;;;;;;;16.46;55.67;100703.31;5002608;28;20038;-66
2023/05/16 05:39:42;;;;;;;0.00;0.00;;;;;;;16.57;55.17;100690.50;5007087;28;20041;-67
2023/05/16 05:42:08;;;;;;;0.00;0.00;;;;;;;16.94;53.44;100696.16;5007819;28;20046;-67
2023/05/16 05:44:33;;;;;;;0.55;0.20;;;;;;;17.09;52.92;100700.34;4986767;28;20053;-66
2023/05/16 05:46:59;;;;;;;0.32;0.20;;;;;;;17.11;52.92;100710.88;5008990;28;20494;-66
2023/05/16 05:49:28;;;;;;;0.52;0.45;;;;;;;17.36;52.14;100705.28;4991710;28;20021;-66
2023/05/16 05:51:53;;;;;;;2.67;0.25;;;;;;;17.35;52.40;100712.66;4987530;28;20069;-66
2023/05/16 05:54:19;;;;;;;0.17;0.17;;;;;;;17.35;52.55;100717.31;5005312;28;20025;-67
2023/05/16 05:56:45;;;;;;;0.55;0.15;;;;;;;17.55;52.12;100712.94;5006542;28;20612;-66
2023/05/16 05:59:10;;;;;;;2.63;0.32;;;;;;;17.78;50.71;100719.38;5007512;28;20390;-66
2023/05/16 06:01:36;;;;;;;0.25;0.10;;;;;;;17.57;51.33;100713.31;4998223;28;20053;-67
2023/05/16 06:04:02;;;;;;;1.02;0.32;;;;;;;17.58;51.51;100723.03;5009666;28;20091;-67
2023/05/16 06:06:28;;;;;;;0.43;0.43;;;;;;;17.51;52.20;100723.88;5007474;28;20032;-67
2023/05/16 06:08:53;;;;;;;0.10;0.10;;;;;;;17.50;52.28;100738.66;5009933;28;20056;-67
2023/05/16 06:11:20;;;;;;;1.48;0.55;;;;;;;17.54;51.27;100730.44;4996683;28;20048;-67
2023/05/16 06:13:46;;;;;;;3.13;0.68;;;;;;;17.28;51.37;100723.59;5012462;28;20037;-66
2023/05/16 06:16:11;;;;;;;0.10;0.10;;;;;;;17.02;51.78;100732.28;5005154;28;20041;-66
2023/05/16 06:18:37;;;;;;;0.00;0.00;;;;;;;17.16;52.97;100724.06;4977117;28;20414;-67
2023/05/16 06:21:03;;;;;;;4.63;0.40;;;;;;;17.38;51.98;100728.19;5000395;28;20049;-66
2023/05/16 06:23:28;;;;;;;1.45;0.10;;;;;;;17.52;52.88;100732.78;4997922;28;20550;-66
2023/05/16 06:25:54;;;;;;;0.00;0.00;;;;;;;17.81;52.17;100737.63;5010083;28;20117;-65
2023/05/16 06:28:19;;;;;;;0.35;0.10;;;;;;;17.71;51.71;100741.22;5010234;28;20475;-66
2023/05/16 06:30:46;;;;;;;2.72;0.50;;;;;;;17.76;52.20;100737.31;5003080;28;20465;-66
2023/05/16 06:33:13;;;;;;;1.85;0.20;;;;;;;17.91;49.81;100742.25;5006774;28;20084;-66
2023/05/16 06:35:39;;;;;;;2.40;0.00;;;;;;;17.86;49.27;100745.41;5003846;28;20487;-66
2023/05/16 06:38:25;;;;;;;1.30;0.30;;;;;;;17.76;48.99;100745.47;4984553;28;20104;-66
2023/05/16 06:40:51;;;;;;;0.63;0.20;;;;;;;17.54;48.89;100744.06;4947510;28;20035;-66
2023/05/16 06:43:16;;;;;;;2.20;0.30;;;;;;;17.32;49.44;100742.63;4949467;28;20415;-67
2023/05/16 06:45:43;;;;;;;0.10;0.10;;;;;;;17.23;49.21;100748.50;4951407;28;20054;-66
2023/05/16 06:48:09;;;;;;;0.00;0.00;;;;;;;17.14;49.78;100762.56;4941955;28;20123;-66
2023/05/16 06:50:35;;;;;;;0.00;0.00;;;;;;;17.13;49.43;100766.44;4945978;28;20102;-66
2023/05/16 06:53:01;;;;;;;0.15;0.13;;;;;;;17.19;50.06;100757.88;4947336;28;20568;-66
2023/05/16 06:55:26;;;;;;;1.02;0.20;;;;;;;17.23;49.83;100764.84;4942440;28;21781;-66
2023/05/16 06:57:51;;;;;;;2.95;0.10;;;;;;;17.40;48.72;100766.69;4951866;28;20047;-67
2023/05/16 07:00:17;;;;;;;2.90;0.28;;;;;;;17.41;48.87;100765.53;4945298;28;20146;-66
2023/05/16 07:02:43;;;;;;;0.80;0.10;;;;;;;17.27;49.37;100770.25;4950059;28;20058;-67
2023/05/16 07:05:09;;;;;;;0.00;0.00;;;;;;;17.10;50.19;100777.34;4948566;28;20038;-66
2023/05/16 07:07:34;;;;;;;0.20;0.10;;;;;;;17.06;50.39;100782.81;4950479;28;20039;-67
2023/05/16 07:10:00;;;;;;;0.32;0.08;;;;;;;16.89;50.62;100780.94;4949969;28;20515;-67
2023/05/16 07:12:26;;;;;;;1.63;0.38;;;;;;;16.91;51.03;100780.53;4950058;28;20054;-67
2023/05/16 07:14:51;;;;;;;0.22;0.20;;;;;;;16.91;51.17;100791.41;4944737;28;20804;-66
2023/05/16 07:17:16;;;;;;;0.00;0.00;;;;;;;16.84;51.28;100791.44;4961849;28;20046;-66
2023/05/16 07:19:43;;;;;;;0.10;0.10;;;;;;;16.73;51.74;100791.47;5005427;28;20108;-66
2023/05/16 07:22:09;;;;;;;2.00;0.85;;;;;;;16.78;51.90;100798.47;5010414;28;20025;-66
2023/05/16 07:24:35;;;;;;;0.05;0.05;;;;;;;16.81;50.80;100792.22;4988626;28;20042;-66
2023/05/16 07:27:02;;;;;;;0.10;0.10;;;;;;;16.74;51.36;100801.16;5006817;28;20050;-67
2023/05/16 07:29:29;;;;;;;5.93;0.38;;;;;;;16.81;51.12;100793.00;4989893;28;20045;-66
2023/05/16 07:31:54;;;;;;;1.88;1.02;;;;;;;16.71;50.86;100793.03;5004141;28;20121;-66
2023/05/16 07:34:20;;;;;;;0.00;0.00;;;;;;;16.73;51.05;100791.47;4990756;28;20108;-67
2023/05/16 07:36:46;;;;;;;4.93;0.40;;;;;;;16.77;51.14;100792.22;5006497;28;20068;-71
2023/05/16 07:39:11;;;;;;;0.05;0.05;;;;;;;16.74;51.90;100797.69;4994456;28;20033;-64
2023/05/16 07:41:37;;;;;;;0.57;0.30;;;;;;;16.97;51.90;100795.28;5007748;28;20030;-64
2023/05/16 07:44:02;;;;;;;0.47;0.35;;;;;;;17.18;49.95;100797.91;5007661;28;20053;-65
2023/05/16 07:46:30;;;;;;;0.98;0.65;;;;;;;17.08;51.02;100798.72;4991777;28;20529;-66
2023/05/16 07:48:56;;;;;;;0.08;0.08;;;;;;;17.19;50.52;100802.19;5009375;28;20037;-65
2023/05/16 07:51:21;;;;;;;0.98;0.55;;;;;;;17.46;49.26;100800.50;5005707;28;20026;-65
2023/05/16 07:53:47;;;;;;;0.05;0.05;;;;;;;17.65;49.22;100802.00;5010064;28;20046;-66
2023/05/16 07:56:13;;;;;;;0.03;0.03;;;;;;;17.83;49.38;100792.50;5016338;28;20036;-68
2023/05/16 07:58:38;;;;;;;0.40;0.40;;;;;;;18.22;49.34;100800.38;5006572;28;20398;-65
2023/05/16 08:01:04;;;;;;;0.45;0.10;;;;;;;18.78;45.96;100799.09;5006425;28;20037;-66
2023/05/16 08:03:30;;;;;;;3.10;0.50;;;;;;;19.07;45.23;100802.28;5009316;28;20033;-68
2023/05/16 08:05:55;;;;;;;0.32;0.15;;;;;;;19.30;44.90;100810.59;4985621;28;20022;-66
2023/05/16 08:08:20;;;;;;;0.00;0.00;;;;;;;19.37;44.44;100810.50;5008299;28;20037;-65
2023/05/16 08:10:46;;;;;;;0.00;0.00;;;;;;;19.40;43.92;100810.47;5009833;28;20084;-69
2023/05/16 08:13:11;;;;;;;0.10;0.10;;;;;;;19.29;42.87;100809.03;5008312;28;20041;-66
2023/05/16 08:15:37;;;;;;;0.00;0.00;;;;;;;19.52;43.55;100815.38;5008122;28;20045;-66
2023/05/16 08:18:23;;;;;;;0.77;0.32;;;;;;;19.55;43.21;100822.75;5007125;28;20026;-66
2023/05/16 08:21:08;;;;;;;0.00;0.00;;;;;;;19.67;42.94;100824.94;4946917;28;20516;-67
2023/05/16 08:23:35;;;;;;;0.20;0.20;;;;;;;19.75;42.25;100823.66;4888321;29;20490;-66
2023/05/16 08:26:21;;;;;;;0.08;0.08;;;;;;;19.88;41.52;100823.84;4891305;29;20055;-66
2023/05/16 08:28:46;;;;;;;0.30;0.30;;;;;;;20.08;42.39;100816.50;4817330;29;20130;-65
2023/05/16 08:31:12;;;;;;;0.00;0.00;;;;;;;20.23;41.97;100822.53;4820343;29;20606;-66
2023/05/16 08:33:37;;;;;;;0.00;0.00;;;;;;;20.48;39.55;100818.19;4815411;29;20054;-65
2023/05/16 08:36:03;;;;;;;0.00;0.00;;;;;;;20.56;39.96;100835.25;4817467;29;20034;-68
2023/05/16 08:38:28;;;;;;;0.00;0.00;;;;;;;20.42;39.16;100825.31;4826817;29;20062;-67
2023/05/16 08:40:55;;;;;;;0.00;0.00;;;;;;;20.52;39.72;100829.06;4816868;29;20050;-65
2023/05/16 08:43:20;;;;;;;0.10;0.10;;;;;;;20.75;40.54;100820.06;4819820;29;20117;-65
2023/05/16 08:45:46;;;;;;;0.20;0.10;;;;;;;20.93;39.11;100820.50;4815800;29;20452;-65
2023/05/16 08:48:14;;;;;;;1.27;0.20;;;;;;;20.72;39.72;100827.16;4825629;29;20047;-67
2023/05/16 08:50:41;;;;;;;0.00;0.00;;;;;;;20.62;40.12;100836.31;4812700;29;20042;-66
2023/05/16 08:53:08;;;;;;;1.85;0.20;;;;;;;20.55;41.17;100834.50;4816004;29;20129;-65
2023/05/16 08:55:35;;;;;;;0.10;0.10;;;;;;;20.29;41.11;100831.81;4821534;29;20342;-66
2023/05/16 08:58:01;;;;;;;0.00;0.00;;;;;;;19.98;40.45;100833.06;4826146;29;20045;-65
2023/05/16 09:00:30;;;;;;;1.40;0.05;;;;;;;19.83;40.79;100823.53;4869519;29;20096;-65
2023/05/16 09:02:56;;;;;;;0.20;0.00;;;;;;;19.88;41.65;100826.56;4914253;29;20105;-66
2023/05/16 09:05:23;;;;;;;1.45;0.10;;;;;;;20.10;41.38;100824.28;4935114;28;20140;-68
2023/05/16 09:07:49;;;;;;;0.40;0.17;;;;;;;20.33;41.68;100825.09;5005226;28;20113;-64
2023/05/16 09:10:15;;;;;;;0.32;0.00;;;;;;;20.51;41.95;100825.59;4986279;28;20038;-66
2023/05/16 09:12:44;;;;;;;0.65;0.38;;;;;;;20.84;41.98;100823.81;5005927;28;20033;-66
2023/05/16 09:15:10;;;;;;;2.28;0.10;;;;;;;21.14;39.67;100815.41;5005740;28;20033;-66
2023/05/16 09:17:45;;;;;;;0.10;0.05;;;;;;;21.18;37.79;100820.81;5007877;28;20087;-70
2023/05/16 09:20:14;;;;;;;1.10;0.20;;;;;;;21.13;37.09;100829.53;5007421;28;20022;-66
2023/05/16 09:22:49;;;;;;;0.10;0.00;;;;;;;20.89;37.81;100828.78;5006584;28;20555;-66
2023/05/16 09:25:18;;;;;;;0.00;0.00;;;;;;;20.87;38.53;100838.59;5007513;28;20505;-70
2023/05/16 09:27:46;;;;;;;0.22;0.00;;;;;;;20.73;38.05;100827.94;5008799;28;20037;-66
2023/05/16 09:30:14;;;;;;;0.00;0.00;;;;;;;20.61;39.33;100826.59;5008928;28;20076;-67
2023/05/16 09:32:44;;;;;;;0.20;0.10;;;;;;;20.63;38.73;100822.22;5006498;28;20022;-66
2023/05/16 09:35:17;;;;;;;0.00;0.00;;;;;;;20.69;39.06;100817.06;4989745;28;20055;-66
2023/05/16 09:37:47;;;;;;;1.75;0.00;;;;;;;21.06;37.38;100814.00;5004756;28;20096;-67
2023/05/16 09:40:13;;;;;;;0.10;0.10;;;;;;;21.45;37.96;100815.91;5003897;28;20049;-66
2023/05/16 09:42:39;;;;;;;0.73;0.20;;;;;;;21.88;37.74;100827.53;5004692;28;20612;-67
2023/05/16 09:45:05;;;;;;;0.90;0.52;;;;;;;22.02;38.12;100823.66;5010712;28;20041;-68
2023/05/16 09:47:31;;;;;;;0.95;0.10;;;;;;;21.89;38.38;100823.56;5011653;28;20600;-66
2023/05/16 09:49:56;;;;;;;1.95;0.00;;;;;;;21.71;37.21;100825.94;4993705;28;20030;-67
2023/05/16 09:52:25;;;;;;;0.47;0.20;;;;;;;21.47;36.40;100819.78;4980686;28;20122;-66
2023/05/16 09:54:51;;;;;;;0.00;0.00;;;;;;;21.47;36.33;100824.50;5010202;28;20677;-66
2023/05/16 09:57:20;;;;;;;0.32;0.15;;;;;;;21.60;37.19;100822.66;5011742;28;20252;-67
2023/05/16 09:59:46;;;;;;;0.00;0.00;;;;;;;21.90;37.21;100838.06;4993399;28;20058;-66
2023/05/16 10:02:12;;;;;;;0.10;0.10;;;;;;;22.07;37.11;100834.13;5007990;28;20061;-67
2023/05/16 10:04:38;;;;;;;1.17;0.35;;;;;;;22.14;35.99;100844.94;5010910;28;20034;-67
2023/05/16 10:07:05;;;;;;;0.00;0.00;;;;;;;22.10;36.17;100836.03;5003846;28;20111;-68
2023/05/16 10:09:32;;;;;;;0.93;0.08;;;;;;;22.19;35.83;100839.72;4991017;28;20037;-66
2023/05/16 10:12:02;;;;;;;1.08;0.40;;;;;;;22.33;35.77;100838.59;4997322;28;20037;-69
2023/05/16 10:14:30;;;;;;;0.17;0.00;;;;;;;22.44;36.22;100825.34;5011461;28;20118;-67
2023/05/16 10:16:56;;;;;;;0.28;0.10;;;;;;;22.45;37.31;100822.19;5003076;28;20099;-66
2023/05/16 10:19:24;;;;;;;0.20;0.20;;;;;;;22.80;35.98;100833.47;5007063;28;20075;-67
2023/05/16 10:21:53;;;;;;;0.15;0.10;;;;;;;22.63;35.21;100834.72;5003517;28;20022;-66
2023/05/16 10:24:25;;;;;;;0.00;0.00;;;;;;;22.65;35.12;100835.06;5008252;28;20069;-67
2023/05/16 10:26:51;;;;;;;0.17;0.10;;;;;;;22.55;34.66;100839.56;5007665;28;20524;-69
2023/05/16 10:29:18;;;;;;;0.13;0.10;;;;;;;22.23;35.22;100848.63;5004570;28;20122;-68
2023/05/16 10:31:44;;;;;;;0.70;0.25;;;;;;;22.01;36.04;100841.34;5005561;28;20112;-66
2023/05/16 10:34:10;;;;;;;3.45;0.20;;;;;;;21.66;37.81;100840.13;5002511;28;20060;-67
2023/05/16 10:36:37;;;;;;;0.10;0.10;;;;;;;21.72;39.59;100843.91;5010251;28;20026;-66
2023/05/16 10:39:03;;;;;;;0.77;0.08;;;;;;;21.42;42.93;100838.72;5006227;28;20057;-66
2023/05/16 10:41:28;;;;;;;3.58;0.20;;;;;;;21.37;43.60;100839.97;5010047;28;20022;-66
2023/05/16 10:43:58;;;;;;;1.40;0.75;;;;;;;21.66;40.82;100839.38;5011085;28;20049;-66
2023/05/16 10:46:26;;;;;;;0.00;0.00;;;;;;;22.06;38.03;100841.59;5006202;28;20036;-66
2023/05/16 10:48:51;;;;;;;0.00;0.00;;;;;;;22.35;36.28;100836.19;5009581;28;20076;-65
2023/05/16 10:51:34;;;;;;;0.05;0.00;;;;;;;22.52;35.11;100839.69;5004315;22;20046;-67
2023/05/16 10:54:09;;;;;;;0.43;0.17;;;;;;;22.59;36.45;100832.06;4992602;28;20064;-65
2023/05/16 10:56:35;;;;;;;0.50;0.20;;;;;;;22.99;36.60;100841.59;4975665;28;20034;-68
2023/05/16 10:59:01;;;;;;;0.22;0.17;;;;;;;22.93;37.35;100848.03;4970873;28;20030;-67
2023/05/16 11:01:33;;;;;;;0.50;0.15;;;;;;;23.21;37.38;100848.00;4979798;28;20030;-68
2023/05/16 11:04:04;;;;;;;0.45;0.10;;;;;;;23.28;36.37;100844.31;4987377;28;20390;-67
2023/05/16 11:06:42;;;;;;;0.40;0.10;;;;;;;22.91;37.25;100844.94;4968789;28;20039;-64
2023/05/16 11:09:18;;;;;;;0.35;0.20;;;;;;;22.57;36.94;100845.44;4978951;28;20129;-68
2023/05/16 11:12:02;;;;;;;0.30;0.10;;;;;;;22.13;38.02;100848.88;4966834;28;20050;-67
2023/05/16 11:14:31;;;;;;;0.50;0.50;;;;;;;22.26;36.16;100839.53;4987774;28;20125;-68
2023/05/16 11:17:06;;;;;;;0.50;0.05;;;;;;;22.52;36.67;100850.66;4985157;28;20038;-63
2023/05/16 11:19:44;;;;;;;0.40;0.40;;;;;;;22.74;34.59;100859.94;4980529;28;20061;-65
2023/05/16 11:22:22;;;;;;;1.00;0.20;;;;;;;22.52;34.37;100878.91;4965901;28;20026;-67
2023/05/16 11:24:56;;;;;;;0.05;0.00;;;;;;;22.09;33.65;100872.88;4979541;28;20057;-66
2023/05/16 11:27:24;;;;;;;0.20;0.20;;;;;;;21.83;34.40;100860.19;4981370;28;20030;-67